sensor_id;sensor_type;location;lat;lon;timestamp;temperature;humidity
43346;DHT22;28937;51.160;4.146;2023-06-14T00:00:17;25.20;70.00
43346;DHT22;28937;51.160;4.146;2023-06-14T00:02:43;25.20;70.20
43346;DHT22;28937;51.160;4.146;2023-06-14T00:05:08;25.20;70.30
43346;DHT22;28937;51.160;4.146;2023-06-14T00:07:39;25.20;70.20
43346;DHT22;28937;51.160;4.146;2023-06-14T00:10:08;25.10;70.00
43346;DHT22;28937;51.160;4.146;2023-06-14T00:12:34;25.10;70.00
43346;DHT22;28937;51.160;4.146;2023-06-14T00:15:00;25.10;69.90
43346;DHT22;28937;51.160;4.146;2023-06-14T00:17:29;25.10;70.10
43346;DHT22;28937;51.160;4.146;2023-06-14T00:19:56;25.10;69.90
43346;DHT22;28937;51.160;4.146;2023-06-14T00:22:22;25.00;70.50
43346;DHT22;28937;51.160;4.146;2023-06-14T00:24:50;25.00;69.80
43346;DHT22;28937;51.160;4.146;2023-06-14T00:27:16;25.00;69.90
43346;DHT22;28937;51.160;4.146;2023-06-14T00:29:41;25.00;69.70
43346;DHT22;28937;51.160;4.146;2023-06-14T00:32:07;25.00;69.60
43346;DHT22;28937;51.160;4.146;2023-06-14T00:34:33;24.90;69.50
43346;DHT22;28937;51.160;4.146;2023-06-14T00:36:59;24.90;69.50
43346;DHT22;28937;51.160;4.146;2023-06-14T00:39:25;24.90;69.40
43346;DHT22;28937;51.160;4.146;2023-06-14T00:41:50;24.80;69.30
43346;DHT22;28937;51.160;4.146;2023-06-14T00:44:16;24.80;69.30
43346;DHT22;28937;51.160;4.146;2023-06-14T00:46:42;24.80;69.10
43346;DHT22;28937;51.160;4.146;2023-06-14T00:49:09;24.80;69.00
43346;DHT22;28937;51.160;4.146;2023-06-14T00:51:36;24.70;68.80
43346;DHT22;28937;51.160;4.146;2023-06-14T00:54:02;24.70;68.70
43346;DHT22;28937;51.160;4.146;2023-06-14T00:56:28;24.70;68.90
43346;DHT22;28937;51.160;4.146;2023-06-14T00:58:55;24.70;69.00
43346;DHT22;28937;51.160;4.146;2023-06-14T01:01:21;24.60;68.90
43346;DHT22;28937;51.160;4.146;2023-06-14T01:03:47;24.70;68.60
43346;DHT22;28937;51.160;4.146;2023-06-14T01:12:01;24.50;68.50
43346;DHT22;28937;51.160;4.146;2023-06-14T01:14:30;24.50;68.70
43346;DHT22;28937;51.160;4.146;2023-06-14T01:16:58;24.50;68.60
43346;DHT22;28937;51.160;4.146;2023-06-14T01:19:25;24.50;68.40
43346;DHT22;28937;51.160;4.146;2023-06-14T01:21:54;24.40;68.30
43346;DHT22;28937;51.160;4.146;2023-06-14T01:24:20;24.40;68.60
43346;DHT22;28937;51.160;4.146;2023-06-14T01:26:53;24.40;68.60
43346;DHT22;28937;51.160;4.146;2023-06-14T01:29:22;24.40;68.10
43346;DHT22;28937;51.160;4.146;2023-06-14T01:31:49;24.40;68.40
43346;DHT22;28937;51.160;4.146;2023-06-14T01:34:15;24.30;67.90
43346;DHT22;28937;51.160;4.146;2023-06-14T01:36:43;24.30;68.00
43346;DHT22;28937;51.160;4.146;2023-06-14T01:39:11;24.30;68.10
43346;DHT22;28937;51.160;4.146;2023-06-14T01:41:39;24.30;68.10
43346;DHT22;28937;51.160;4.146;2023-06-14T01:44:05;24.20;67.90
43346;DHT22;28937;51.160;4.146;2023-06-14T01:46:31;24.20;67.70
43346;DHT22;28937;51.160;4.146;2023-06-14T01:48:57;24.20;68.20
43346;DHT22;28937;51.160;4.146;2023-06-14T01:51:23;24.10;67.90
43346;DHT22;28937;51.160;4.146;2023-06-14T01:53:48;24.10;67.60
43346;DHT22;28937;51.160;4.146;2023-06-14T01:56:14;24.10;67.40
43346;DHT22;28937;51.160;4.146;2023-06-14T01:58:39;24.10;67.00
43346;DHT22;28937;51.160;4.146;2023-06-14T02:01:05;24.10;66.80
43346;DHT22;28937;51.160;4.146;2023-06-14T02:03:32;24.10;66.40
43346;DHT22;28937;51.160;4.146;2023-06-14T02:05:58;24.10;66.10
43346;DHT22;28937;51.160;4.146;2023-06-14T02:08:24;24.10;65.80
43346;DHT22;28937;51.160;4.146;2023-06-14T02:10:49;24.00;65.50
43346;DHT22;28937;51.160;4.146;2023-06-14T02:13:15;24.00;65.20
43346;DHT22;28937;51.160;4.146;2023-06-14T02:15:41;24.00;65.10
43346;DHT22;28937;51.160;4.146;2023-06-14T02:18:09;24.00;64.60
43346;DHT22;28937;51.160;4.146;2023-06-14T02:20:35;24.00;64.50
43346;DHT22;28937;51.160;4.146;2023-06-14T02:23:01;24.00;64.20
43346;DHT22;28937;51.160;4.146;2023-06-14T02:25:27;23.90;63.90
43346;DHT22;28937;51.160;4.146;2023-06-14T02:27:54;23.90;63.70
43346;DHT22;28937;51.160;4.146;2023-06-14T02:30:20;23.90;63.50
43346;DHT22;28937;51.160;4.146;2023-06-14T02:32:46;23.90;63.30
43346;DHT22;28937;51.160;4.146;2023-06-14T02:35:14;23.80;62.90
43346;DHT22;28937;51.160;4.146;2023-06-14T02:37:40;23.80;62.70
43346;DHT22;28937;51.160;4.146;2023-06-14T02:40:06;23.80;62.50
43346;DHT22;28937;51.160;4.146;2023-06-14T02:42:34;23.80;62.30
43346;DHT22;28937;51.160;4.146;2023-06-14T02:45:00;23.70;62.00
43346;DHT22;28937;51.160;4.146;2023-06-14T02:47:25;23.70;62.00
43346;DHT22;28937;51.160;4.146;2023-06-14T02:49:51;23.80;61.80
43346;DHT22;28937;51.160;4.146;2023-06-14T02:52:17;23.70;61.70
43346;DHT22;28937;51.160;4.146;2023-06-14T02:54:42;23.70;61.50
43346;DHT22;28937;51.160;4.146;2023-06-14T02:57:08;23.70;61.40
43346;DHT22;28937;51.160;4.146;2023-06-14T02:59:34;23.70;61.30
43346;DHT22;28937;51.160;4.146;2023-06-14T03:02:00;23.60;61.20
43346;DHT22;28937;51.160;4.146;2023-06-14T03:04:26;23.60;61.10
43346;DHT22;28937;51.160;4.146;2023-06-14T03:06:52;23.60;61.10
43346;DHT22;28937;51.160;4.146;2023-06-14T03:09:19;23.60;60.90
43346;DHT22;28937;51.160;4.146;2023-06-14T03:11:45;23.50;61.00
43346;DHT22;28937;51.160;4.146;2023-06-14T03:14:10;23.50;60.90
43346;DHT22;28937;51.160;4.146;2023-06-14T03:16:36;23.50;60.80
43346;DHT22;28937;51.160;4.146;2023-06-14T03:19:02;23.40;60.40
43346;DHT22;28937;51.160;4.146;2023-06-14T03:21:28;23.50;60.30
43346;DHT22;28937;51.160;4.146;2023-06-14T03:23:54;23.40;60.10
43346;DHT22;28937;51.160;4.146;2023-06-14T03:26:19;23.40;60.10
43346;DHT22;28937;51.160;4.146;2023-06-14T03:28:46;23.40;60.10
43346;DHT22;28937;51.160;4.146;2023-06-14T03:31:12;23.40;60.10
43346;DHT22;28937;51.160;4.146;2023-06-14T03:33:38;23.40;60.30
43346;DHT22;28937;51.160;4.146;2023-06-14T03:36:05;23.40;60.30
43346;DHT22;28937;51.160;4.146;2023-06-14T03:38:30;23.40;60.30
43346;DHT22;28937;51.160;4.146;2023-06-14T03:40:56;23.30;60.40
43346;DHT22;28937;51.160;4.146;2023-06-14T03:43:22;23.30;60.50
43346;DHT22;28937;51.160;4.146;2023-06-14T03:45:47;23.30;60.50
43346;DHT22;28937;51.160;4.146;2023-06-14T03:48:13;23.20;60.50
43346;DHT22;28937;51.160;4.146;2023-06-14T03:50:38;23.20;60.60
43346;DHT22;28937;51.160;4.146;2023-06-14T03:53:04;23.30;60.70
43346;DHT22;28937;51.160;4.146;2023-06-14T03:55:30;23.20;60.60
43346;DHT22;28937;51.160;4.146;2023-06-14T03:57:59;23.20;60.60
43346;DHT22;28937;51.160;4.146;2023-06-14T04:00:24;23.20;60.60
43346;DHT22;28937;51.160;4.146;2023-06-14T04:02:50;23.20;60.90
43346;DHT22;28937;51.160;4.146;2023-06-14T04:05:16;23.10;60.90
43346;DHT22;28937;51.160;4.146;2023-06-14T04:07:44;23.10;60.90
43346;DHT22;28937;51.160;4.146;2023-06-14T04:10:12;23.10;61.00
43346;DHT22;28937;51.160;4.146;2023-06-14T04:12:38;23.10;60.90
43346;DHT22;28937;51.160;4.146;2023-06-14T04:15:04;23.10;61.00
43346;DHT22;28937;51.160;4.146;2023-06-14T04:17:32;23.10;61.10
43346;DHT22;28937;51.160;4.146;2023-06-14T04:19:58;23.00;61.00
43346;DHT22;28937;51.160;4.146;2023-06-14T04:22:27;23.00;61.00
43346;DHT22;28937;51.160;4.146;2023-06-14T04:24:56;23.00;61.00
43346;DHT22;28937;51.160;4.146;2023-06-14T04:27:23;23.00;61.00
43346;DHT22;28937;51.160;4.146;2023-06-14T04:29:54;23.00;61.00
43346;DHT22;28937;51.160;4.146;2023-06-14T04:32:28;23.00;61.10
43346;DHT22;28937;51.160;4.146;2023-06-14T04:35:08;23.00;61.30
43346;DHT22;28937;51.160;4.146;2023-06-14T04:37:34;23.00;64.10
43346;DHT22;28937;51.160;4.146;2023-06-14T04:40:00;23.00;64.80
43346;DHT22;28937;51.160;4.146;2023-06-14T04:42:25;23.00;64.90
43346;DHT22;28937;51.160;4.146;2023-06-14T04:44:56;23.00;65.00
43346;DHT22;28937;51.160;4.146;2023-06-14T04:47:22;23.00;64.70
43346;DHT22;28937;51.160;4.146;2023-06-14T04:49:50;23.10;64.80
43346;DHT22;28937;51.160;4.146;2023-06-14T04:52:19;23.00;64.80
43346;DHT22;28937;51.160;4.146;2023-06-14T04:54:46;23.10;65.00
43346;DHT22;28937;51.160;4.146;2023-06-14T04:57:12;23.10;64.90
43346;DHT22;28937;51.160;4.146;2023-06-14T04:59:39;23.10;64.90
43346;DHT22;28937;51.160;4.146;2023-06-14T05:02:05;23.00;65.10
43346;DHT22;28937;51.160;4.146;2023-06-14T05:04:31;23.10;65.10
43346;DHT22;28937;51.160;4.146;2023-06-14T05:06:57;23.10;65.00
43346;DHT22;28937;51.160;4.146;2023-06-14T05:09:23;23.10;64.90
43346;DHT22;28937;51.160;4.146;2023-06-14T05:11:48;23.00;65.00
43346;DHT22;28937;51.160;4.146;2023-06-14T05:14:15;23.00;65.10
43346;DHT22;28937;51.160;4.146;2023-06-14T05:16:41;23.00;65.40
43346;DHT22;28937;51.160;4.146;2023-06-14T05:19:08;23.00;65.10
43346;DHT22;28937;51.160;4.146;2023-06-14T05:21:36;23.00;65.30
43346;DHT22;28937;51.160;4.146;2023-06-14T05:24:02;23.00;65.40
43346;DHT22;28937;51.160;4.146;2023-06-14T05:26:28;23.00;65.60
43346;DHT22;28937;51.160;4.146;2023-06-14T05:28:57;23.00;65.30
43346;DHT22;28937;51.160;4.146;2023-06-14T05:31:23;23.00;65.70
43346;DHT22;28937;51.160;4.146;2023-06-14T05:33:50;23.00;65.80
43346;DHT22;28937;51.160;4.146;2023-06-14T05:36:15;23.00;65.80
43346;DHT22;28937;51.160;4.146;2023-06-14T05:38:41;23.00;65.60
43346;DHT22;28937;51.160;4.146;2023-06-14T05:41:06;23.00;65.80
43346;DHT22;28937;51.160;4.146;2023-06-14T05:43:32;23.00;65.30
43346;DHT22;28937;51.160;4.146;2023-06-14T05:45:58;23.00;65.20
43346;DHT22;28937;51.160;4.146;2023-06-14T05:48:23;23.00;64.40
43346;DHT22;28937;51.160;4.146;2023-06-14T05:50:49;23.10;64.40
43346;DHT22;28937;51.160;4.146;2023-06-14T05:53:14;23.10;64.00
43346;DHT22;28937;51.160;4.146;2023-06-14T05:55:40;23.10;63.90
43346;DHT22;28937;51.160;4.146;2023-06-14T05:58:06;23.10;63.90
43346;DHT22;28937;51.160;4.146;2023-06-14T06:00:31;23.20;64.00
43346;DHT22;28937;51.160;4.146;2023-06-14T06:02:57;23.20;64.30
43346;DHT22;28937;51.160;4.146;2023-06-14T06:05:23;23.30;64.50
43346;DHT22;28937;51.160;4.146;2023-06-14T06:07:49;23.40;64.20
43346;DHT22;28937;51.160;4.146;2023-06-14T06:10:15;23.40;65.30
43346;DHT22;28937;51.160;4.146;2023-06-14T06:12:41;23.50;65.60
43346;DHT22;28937;51.160;4.146;2023-06-14T06:15:07;23.50;65.90
43346;DHT22;28937;51.160;4.146;2023-06-14T06:17:37;23.50;66.00
43346;DHT22;28937;51.160;4.146;2023-06-14T06:20:03;23.60;65.80
43346;DHT22;28937;51.160;4.146;2023-06-14T06:22:31;23.70;64.10
43346;DHT22;28937;51.160;4.146;2023-06-14T06:24:56;23.70;63.80
43346;DHT22;28937;51.160;4.146;2023-06-14T06:27:22;23.80;63.90
43346;DHT22;28937;51.160;4.146;2023-06-14T06:29:47;23.90;64.10
43346;DHT22;28937;51.160;4.146;2023-06-14T06:32:17;23.90;64.30
43346;DHT22;28937;51.160;4.146;2023-06-14T06:34:42;24.00;63.80
43346;DHT22;28937;51.160;4.146;2023-06-14T06:37:08;24.10;64.30
43346;DHT22;28937;51.160;4.146;2023-06-14T06:39:34;24.10;64.20
43346;DHT22;28937;51.160;4.146;2023-06-14T06:42:00;24.10;64.40
43346;DHT22;28937;51.160;4.146;2023-06-14T06:44:25;24.20;63.80
43346;DHT22;28937;51.160;4.146;2023-06-14T06:46:51;24.20;63.70
43346;DHT22;28937;51.160;4.146;2023-06-14T06:49:16;24.30;64.00
43346;DHT22;28937;51.160;4.146;2023-06-14T06:51:42;24.40;64.40
43346;DHT22;28937;51.160;4.146;2023-06-14T06:54:09;24.40;63.60
43346;DHT22;28937;51.160;4.146;2023-06-14T06:56:35;24.50;64.20
43346;DHT22;28937;51.160;4.146;2023-06-14T06:59:01;24.60;64.70
43346;DHT22;28937;51.160;4.146;2023-06-14T07:01:26;24.60;64.60
43346;DHT22;28937;51.160;4.146;2023-06-14T07:03:57;24.60;64.40
43346;DHT22;28937;51.160;4.146;2023-06-14T07:06:22;24.70;64.60
43346;DHT22;28937;51.160;4.146;2023-06-14T07:08:52;24.80;64.10
43346;DHT22;28937;51.160;4.146;2023-06-14T07:11:18;24.80;64.20
43346;DHT22;28937;51.160;4.146;2023-06-14T07:13:43;24.80;64.10
43346;DHT22;28937;51.160;4.146;2023-06-14T07:16:09;24.90;64.30
43346;DHT22;28937;51.160;4.146;2023-06-14T07:18:34;24.90;63.80
43346;DHT22;28937;51.160;4.146;2023-06-14T07:21:01;25.00;64.20
43346;DHT22;28937;51.160;4.146;2023-06-14T07:23:26;25.10;64.30
43346;DHT22;28937;51.160;4.146;2023-06-14T07:25:52;25.10;63.80
43346;DHT22;28937;51.160;4.146;2023-06-14T07:28:18;25.20;63.50
43346;DHT22;28937;51.160;4.146;2023-06-14T07:30:44;25.20;63.50
43346;DHT22;28937;51.160;4.146;2023-06-14T07:33:09;25.30;63.90
43346;DHT22;28937;51.160;4.146;2023-06-14T07:35:36;25.30;63.60
43346;DHT22;28937;51.160;4.146;2023-06-14T07:38:02;25.40;63.10
43346;DHT22;28937;51.160;4.146;2023-06-14T07:40:28;25.50;63.70
43346;DHT22;28937;51.160;4.146;2023-06-14T07:42:53;25.50;63.50
43346;DHT22;28937;51.160;4.146;2023-06-14T07:45:20;25.50;63.90
43346;DHT22;28937;51.160;4.146;2023-06-14T07:47:45;25.60;62.80
43346;DHT22;28937;51.160;4.146;2023-06-14T07:50:11;25.70;62.50
43346;DHT22;28937;51.160;4.146;2023-06-14T07:52:38;25.70;61.30
43346;DHT22;28937;51.160;4.146;2023-06-14T07:55:04;25.80;62.00
43346;DHT22;28937;51.160;4.146;2023-06-14T07:57:30;25.90;61.20
43346;DHT22;28937;51.160;4.146;2023-06-14T07:59:56;26.00;60.90
43346;DHT22;28937;51.160;4.146;2023-06-14T08:02:21;26.00;59.60
43346;DHT22;28937;51.160;4.146;2023-06-14T08:04:47;26.10;60.30
43346;DHT22;28937;51.160;4.146;2023-06-14T08:07:14;26.20;60.70
43346;DHT22;28937;51.160;4.146;2023-06-14T08:09:39;26.20;61.10
43346;DHT22;28937;51.160;4.146;2023-06-14T08:12:06;26.30;62.00
43346;DHT22;28937;51.160;4.146;2023-06-14T08:14:39;26.30;62.00
43346;DHT22;28937;51.160;4.146;2023-06-14T08:17:05;26.30;62.70
43346;DHT22;28937;51.160;4.146;2023-06-14T08:19:30;26.40;62.80
43346;DHT22;28937;51.160;4.146;2023-06-14T08:21:56;26.40;62.30
43346;DHT22;28937;51.160;4.146;2023-06-14T08:24:22;26.40;63.00
43346;DHT22;28937;51.160;4.146;2023-06-14T08:26:53;26.50;62.80
43346;DHT22;28937;51.160;4.146;2023-06-14T08:29:19;26.50;62.30
43346;DHT22;28937;51.160;4.146;2023-06-14T08:31:45;26.50;61.50
43346;DHT22;28937;51.160;4.146;2023-06-14T08:34:11;26.60;61.80
43346;DHT22;28937;51.160;4.146;2023-06-14T08:36:36;26.60;62.60
43346;DHT22;28937;51.160;4.146;2023-06-14T08:39:02;26.70;62.80
43346;DHT22;28937;51.160;4.146;2023-06-14T08:41:28;26.70;62.90
43346;DHT22;28937;51.160;4.146;2023-06-14T08:43:55;26.70;62.80
43346;DHT22;28937;51.160;4.146;2023-06-14T08:46:21;26.80;62.60
43346;DHT22;28937;51.160;4.146;2023-06-14T08:48:51;26.80;62.30
43346;DHT22;28937;51.160;4.146;2023-06-14T08:51:20;26.90;61.30
43346;DHT22;28937;51.160;4.146;2023-06-14T08:53:53;26.90;62.10
43346;DHT22;28937;51.160;4.146;2023-06-14T08:56:25;27.00;61.50
43346;DHT22;28937;51.160;4.146;2023-06-14T08:58:51;27.00;61.80
43346;DHT22;28937;51.160;4.146;2023-06-14T09:01:17;27.10;61.20
43346;DHT22;28937;51.160;4.146;2023-06-14T09:03:44;27.10;61.90
43346;DHT22;28937;51.160;4.146;2023-06-14T09:06:11;27.10;61.80
43346;DHT22;28937;51.160;4.146;2023-06-14T09:08:46;27.20;61.60
43346;DHT22;28937;51.160;4.146;2023-06-14T09:11:13;27.20;61.70
43346;DHT22;28937;51.160;4.146;2023-06-14T09:13:40;27.20;61.30
43346;DHT22;28937;51.160;4.146;2023-06-14T09:16:06;27.30;61.30
43346;DHT22;28937;51.160;4.146;2023-06-14T09:18:40;27.30;61.90
43346;DHT22;28937;51.160;4.146;2023-06-14T09:21:10;27.30;61.70
43346;DHT22;28937;51.160;4.146;2023-06-14T09:23:37;27.30;61.00
43346;DHT22;28937;51.160;4.146;2023-06-14T09:26:10;27.40;60.80
43346;DHT22;28937;51.160;4.146;2023-06-14T09:31:11;27.50;60.50
43346;DHT22;28937;51.160;4.146;2023-06-14T09:33:37;27.50;60.00
43346;DHT22;28937;51.160;4.146;2023-06-14T09:36:09;27.50;59.40
43346;DHT22;28937;51.160;4.146;2023-06-14T09:38:35;27.50;60.00
43346;DHT22;28937;51.160;4.146;2023-06-14T09:41:03;27.50;59.40
43346;DHT22;28937;51.160;4.146;2023-06-14T09:43:29;27.60;60.20
43346;DHT22;28937;51.160;4.146;2023-06-14T09:45:55;27.60;59.60
43346;DHT22;28937;51.160;4.146;2023-06-14T09:48:21;27.60;59.70
43346;DHT22;28937;51.160;4.146;2023-06-14T09:50:47;27.60;59.30
43346;DHT22;28937;51.160;4.146;2023-06-14T09:53:15;27.60;59.30
43346;DHT22;28937;51.160;4.146;2023-06-14T09:55:41;27.70;58.10
43346;DHT22;28937;51.160;4.146;2023-06-14T09:58:09;27.60;59.20
43346;DHT22;28937;51.160;4.146;2023-06-14T10:00:36;27.70;60.00
43346;DHT22;28937;51.160;4.146;2023-06-14T10:03:19;27.70;58.10
43346;DHT22;28937;51.160;4.146;2023-06-14T10:05:48;27.70;59.00
43346;DHT22;28937;51.160;4.146;2023-06-14T10:08:19;27.70;56.90
43346;DHT22;28937;51.160;4.146;2023-06-14T10:10:51;27.70;59.40
43346;DHT22;28937;51.160;4.146;2023-06-14T10:13:16;27.70;57.10
43346;DHT22;28937;51.160;4.146;2023-06-14T10:15:51;27.80;57.00
43346;DHT22;28937;51.160;4.146;2023-06-14T10:18:45;27.80;56.60
43346;DHT22;28937;51.160;4.146;2023-06-14T10:21:16;27.80;56.70
43346;DHT22;28937;51.160;4.146;2023-06-14T10:23:45;27.90;57.40
43346;DHT22;28937;51.160;4.146;2023-06-14T10:26:30;27.90;57.90
43346;DHT22;28937;51.160;4.146;2023-06-14T10:29:16;27.90;57.10
43346;DHT22;28937;51.160;4.146;2023-06-14T10:31:47;27.90;56.70
43346;DHT22;28937;51.160;4.146;2023-06-14T10:34:24;27.90;56.40
43346;DHT22;28937;51.160;4.146;2023-06-14T10:37:13;27.90;56.20
43346;DHT22;28937;51.160;4.146;2023-06-14T10:39:41;27.90;57.50
43346;DHT22;28937;51.160;4.146;2023-06-14T10:42:06;27.90;58.60
43346;DHT22;28937;51.160;4.146;2023-06-14T10:44:42;27.90;56.80
43346;DHT22;28937;51.160;4.146;2023-06-14T10:47:10;27.90;57.30
43346;DHT22;28937;51.160;4.146;2023-06-14T10:49:44;27.90;56.20
43346;DHT22;28937;51.160;4.146;2023-06-14T10:52:15;28.00;56.60
43346;DHT22;28937;51.160;4.146;2023-06-14T10:57:25;27.90;55.90
43346;DHT22;28937;51.160;4.146;2023-06-14T10:59:50;27.90;55.30
43346;DHT22;28937;51.160;4.146;2023-06-14T11:02:21;27.90;55.40
43346;DHT22;28937;51.160;4.146;2023-06-14T11:04:53;28.00;55.70
43346;DHT22;28937;51.160;4.146;2023-06-14T11:10:37;28.00;58.00
43346;DHT22;28937;51.160;4.146;2023-06-14T11:13:04;28.00;55.80
43346;DHT22;28937;51.160;4.146;2023-06-14T11:15:30;27.90;61.20
43346;DHT22;28937;51.160;4.146;2023-06-14T11:17:57;27.90;63.40
43346;DHT22;28937;51.160;4.146;2023-06-14T11:20:26;27.90;63.40
43346;DHT22;28937;51.160;4.146;2023-06-14T11:22:53;27.80;63.40
43346;DHT22;28937;51.160;4.146;2023-06-14T11:25:19;27.80;62.70
43346;DHT22;28937;51.160;4.146;2023-06-14T11:27:45;27.80;62.60
43346;DHT22;28937;51.160;4.146;2023-06-14T11:30:12;27.80;63.90
43346;DHT22;28937;51.160;4.146;2023-06-14T11:32:39;27.80;63.70
43346;DHT22;28937;51.160;4.146;2023-06-14T11:35:05;27.80;62.40
43346;DHT22;28937;51.160;4.146;2023-06-14T11:37:31;27.70;63.00
43346;DHT22;28937;51.160;4.146;2023-06-14T11:40:00;27.70;63.60
43346;DHT22;28937;51.160;4.146;2023-06-14T11:42:27;27.70;62.80
43346;DHT22;28937;51.160;4.146;2023-06-14T11:44:54;27.70;59.20
43346;DHT22;28937;51.160;4.146;2023-06-14T11:47:20;27.60;62.60
43346;DHT22;28937;51.160;4.146;2023-06-14T11:49:46;27.60;60.00
43346;DHT22;28937;51.160;4.146;2023-06-14T11:52:13;27.70;62.20
43346;DHT22;28937;51.160;4.146;2023-06-14T11:54:39;27.70;62.30
43346;DHT22;28937;51.160;4.146;2023-06-14T11:57:08;27.60;60.50
43346;DHT22;28937;51.160;4.146;2023-06-14T11:59:38;27.60;55.50
43346;DHT22;28937;51.160;4.146;2023-06-14T12:02:05;27.70;55.60
43346;DHT22;28937;51.160;4.146;2023-06-14T12:04:31;27.70;54.20
43346;DHT22;28937;51.160;4.146;2023-06-14T12:06:57;27.70;56.70
43346;DHT22;28937;51.160;4.146;2023-06-14T12:09:41;27.70;55.80
43346;DHT22;28937;51.160;4.146;2023-06-14T12:12:08;27.70;54.00
43346;DHT22;28937;51.160;4.146;2023-06-14T12:14:34;27.80;54.20
43346;DHT22;28937;51.160;4.146;2023-06-14T12:17:06;27.80;55.20
43346;DHT22;28937;51.160;4.146;2023-06-14T12:19:41;27.80;53.80
43346;DHT22;28937;51.160;4.146;2023-06-14T12:22:09;27.80;56.10
43346;DHT22;28937;51.160;4.146;2023-06-14T12:24:35;27.80;56.00
43346;DHT22;28937;51.160;4.146;2023-06-14T12:27:01;27.80;53.70
43346;DHT22;28937;51.160;4.146;2023-06-14T12:29:29;27.80;55.10
43346;DHT22;28937;51.160;4.146;2023-06-14T12:31:54;27.80;55.80
43346;DHT22;28937;51.160;4.146;2023-06-14T12:34:23;27.80;53.50
43346;DHT22;28937;51.160;4.146;2023-06-14T12:36:50;27.80;53.10
43346;DHT22;28937;51.160;4.146;2023-06-14T12:39:15;27.80;56.10
43346;DHT22;28937;51.160;4.146;2023-06-14T12:41:41;27.80;53.70
43346;DHT22;28937;51.160;4.146;2023-06-14T12:44:07;27.80;54.10
43346;DHT22;28937;51.160;4.146;2023-06-14T12:46:33;27.80;57.40
43346;DHT22;28937;51.160;4.146;2023-06-14T12:49:00;27.80;55.30
43346;DHT22;28937;51.160;4.146;2023-06-14T12:51:26;27.80;54.10
43346;DHT22;28937;51.160;4.146;2023-06-14T12:53:52;27.80;53.80
43346;DHT22;28937;51.160;4.146;2023-06-14T12:56:18;27.80;55.30
43346;DHT22;28937;51.160;4.146;2023-06-14T12:58:43;27.80;54.00
43346;DHT22;28937;51.160;4.146;2023-06-14T13:01:09;27.80;54.20
43346;DHT22;28937;51.160;4.146;2023-06-14T13:03:35;27.80;53.40
43346;DHT22;28937;51.160;4.146;2023-06-14T13:06:01;27.70;53.70
43346;DHT22;28937;51.160;4.146;2023-06-14T13:08:27;27.80;53.20
43346;DHT22;28937;51.160;4.146;2023-06-14T13:10:53;27.80;54.50
43346;DHT22;28937;51.160;4.146;2023-06-14T13:13:19;27.80;54.70
43346;DHT22;28937;51.160;4.146;2023-06-14T13:15:45;27.80;53.10
43346;DHT22;28937;51.160;4.146;2023-06-14T13:18:12;27.80;53.10
43346;DHT22;28937;51.160;4.146;2023-06-14T13:20:40;27.80;53.20
43346;DHT22;28937;51.160;4.146;2023-06-14T13:23:06;27.80;53.20
43346;DHT22;28937;51.160;4.146;2023-06-14T13:25:33;27.80;53.50
43346;DHT22;28937;51.160;4.146;2023-06-14T13:28:00;27.70;52.80
43346;DHT22;28937;51.160;4.146;2023-06-14T13:30:25;27.70;52.20
43346;DHT22;28937;51.160;4.146;2023-06-14T13:32:51;27.80;53.80
43346;DHT22;28937;51.160;4.146;2023-06-14T13:35:18;27.70;52.90
43346;DHT22;28937;51.160;4.146;2023-06-14T13:37:44;27.80;52.30
43346;DHT22;28937;51.160;4.146;2023-06-14T13:40:10;27.70;52.00
43346;DHT22;28937;51.160;4.146;2023-06-14T13:42:36;27.70;51.60
43346;DHT22;28937;51.160;4.146;2023-06-14T13:45:05;27.70;52.40
43346;DHT22;28937;51.160;4.146;2023-06-14T13:47:31;27.70;53.10
43346;DHT22;28937;51.160;4.146;2023-06-14T13:49:57;27.70;53.00
43346;DHT22;28937;51.160;4.146;2023-06-14T13:52:23;27.70;51.70
43346;DHT22;28937;51.160;4.146;2023-06-14T13:54:49;27.70;51.00
43346;DHT22;28937;51.160;4.146;2023-06-14T13:57:18;27.70;50.60
43346;DHT22;28937;51.160;4.146;2023-06-14T13:59:44;27.70;51.40
43346;DHT22;28937;51.160;4.146;2023-06-14T14:02:10;27.70;51.90
43346;DHT22;28937;51.160;4.146;2023-06-14T14:04:37;27.70;52.90
43346;DHT22;28937;51.160;4.146;2023-06-14T14:07:04;27.80;51.40
43346;DHT22;28937;51.160;4.146;2023-06-14T14:09:31;27.70;52.40
43346;DHT22;28937;51.160;4.146;2023-06-14T14:11:58;27.70;50.80
43346;DHT22;28937;51.160;4.146;2023-06-14T14:14:24;27.70;51.10
43346;DHT22;28937;51.160;4.146;2023-06-14T14:16:49;27.70;51.60
43346;DHT22;28937;51.160;4.146;2023-06-14T14:19:17;27.70;53.60
43346;DHT22;28937;51.160;4.146;2023-06-14T14:21:44;27.70;51.20
43346;DHT22;28937;51.160;4.146;2023-06-14T14:24:10;27.70;55.50
43346;DHT22;28937;51.160;4.146;2023-06-14T14:26:36;27.70;51.30
43346;DHT22;28937;51.160;4.146;2023-06-14T14:29:02;27.70;50.50
43346;DHT22;28937;51.160;4.146;2023-06-14T14:31:28;27.70;50.50
43346;DHT22;28937;51.160;4.146;2023-06-14T14:33:54;27.70;51.60
43346;DHT22;28937;51.160;4.146;2023-06-14T14:36:19;27.70;51.80
43346;DHT22;28937;51.160;4.146;2023-06-14T14:38:45;27.70;51.00
43346;DHT22;28937;51.160;4.146;2023-06-14T14:41:12;27.70;52.60
43346;DHT22;28937;51.160;4.146;2023-06-14T14:43:38;27.70;50.60
43346;DHT22;28937;51.160;4.146;2023-06-14T14:46:04;27.70;52.00
43346;DHT22;28937;51.160;4.146;2023-06-14T14:48:29;27.70;50.70
43346;DHT22;28937;51.160;4.146;2023-06-14T14:50:55;27.70;52.00
43346;DHT22;28937;51.160;4.146;2023-06-14T14:53:21;27.70;51.30
43346;DHT22;28937;51.160;4.146;2023-06-14T14:55:46;27.70;51.90
43346;DHT22;28937;51.160;4.146;2023-06-14T14:58:12;27.70;50.80
43346;DHT22;28937;51.160;4.146;2023-06-14T15:00:38;27.70;51.80
43346;DHT22;28937;51.160;4.146;2023-06-14T15:03:04;27.70;51.40
43346;DHT22;28937;51.160;4.146;2023-06-14T15:05:30;27.60;51.20
43346;DHT22;28937;51.160;4.146;2023-06-14T15:07:55;27.70;50.10
43346;DHT22;28937;51.160;4.146;2023-06-14T15:10:21;27.60;50.10
43346;DHT22;28937;51.160;4.146;2023-06-14T15:12:47;27.60;49.80
43346;DHT22;28937;51.160;4.146;2023-06-14T15:15:12;27.60;49.70
43346;DHT22;28937;51.160;4.146;2023-06-14T15:17:38;27.60;54.70
43346;DHT22;28937;51.160;4.146;2023-06-14T15:20:04;27.60;51.20
43346;DHT22;28937;51.160;4.146;2023-06-14T15:22:31;27.60;50.50
43346;DHT22;28937;51.160;4.146;2023-06-14T15:24:57;27.60;50.70
43346;DHT22;28937;51.160;4.146;2023-06-14T15:27:22;27.60;50.90
43346;DHT22;28937;51.160;4.146;2023-06-14T15:29:48;27.60;51.00
43346;DHT22;28937;51.160;4.146;2023-06-14T15:32:14;27.60;51.00
43346;DHT22;28937;51.160;4.146;2023-06-14T15:34:39;27.60;50.70
43346;DHT22;28937;51.160;4.146;2023-06-14T15:37:06;27.60;50.20
43346;DHT22;28937;51.160;4.146;2023-06-14T15:39:32;27.60;50.80
43346;DHT22;28937;51.160;4.146;2023-06-14T15:41:59;27.60;50.40